createdAt,value
2023-10-17T00:00:33.840Z,13.37
2023-10-17T00:03:39.285Z,13.07
2023-10-17T00:06:42.421Z,11.05
2023-10-17T00:09:45.402Z,12.55
2023-10-17T00:12:53.157Z,10.05
2023-10-17T00:15:57.140Z,13.43
2023-10-17T00:19:06.450Z,14.60
2023-10-17T00:22:19.226Z,12.32
2023-10-17T00:25:22.507Z,9.55
2023-10-17T00:28:25.621Z,12.38
2023-10-17T00:31:28.901Z,9.43
2023-10-17T00:34:32.070Z,10.27
2023-10-17T00:37:38.507Z,12.60
2023-10-17T00:41:01.763Z,14.25
2023-10-17T00:44:04.858Z,11.82
2023-10-17T00:47:09.789Z,11.40
2023-10-17T00:50:14.827Z,11.17
2023-10-17T00:53:18.001Z,11.13
2023-10-17T00:56:21.408Z,10.77
2023-10-17T00:59:30.865Z,9.85
2023-10-17T01:02:33.881Z,12.10
2023-10-17T01:05:59.108Z,23.00
2023-10-17T01:09:21.230Z,20.42
2023-10-17T01:12:29.358Z,21.50
2023-10-17T01:15:39.080Z,15.07
2023-10-17T01:18:45.670Z,12.17
2023-10-17T01:21:49.068Z,12.40
2023-10-17T01:24:52.736Z,11.43
2023-10-17T01:27:55.943Z,13.77
2023-10-17T01:31:02.482Z,15.80
2023-10-17T01:34:09.481Z,16.93
2023-10-17T01:37:14.055Z,17.67
2023-10-17T01:40:29.571Z,17.42
2023-10-17T01:43:38.027Z,17.70
2023-10-17T01:46:45.056Z,11.70
2023-10-17T01:49:48.199Z,9.27
2023-10-17T01:52:54.262Z,8.30
2023-10-17T01:56:08.044Z,10.38
2023-10-17T01:59:29.534Z,9.10
2023-10-17T02:02:33.879Z,8.10
2023-10-17T02:05:37.558Z,9.67
2023-10-17T02:08:41.226Z,8.77
2023-10-17T02:11:45.345Z,9.32
2023-10-17T02:14:48.315Z,10.95
2023-10-17T02:17:52.443Z,7.38
2023-10-17T02:21:05.647Z,10.60
2023-10-17T02:24:08.989Z,8.83
2023-10-17T02:27:14.390Z,8.02
2023-10-17T02:30:21.776Z,8.10
2023-10-17T02:33:29.653Z,8.68
2023-10-17T02:36:33.034Z,8.70
2023-10-17T02:39:38.797Z,9.97
2023-10-17T02:42:41.814Z,9.23
2023-10-17T02:45:44.850Z,11.18
2023-10-17T02:48:48.350Z,12.00
2023-10-17T02:51:55.842Z,12.20
2023-10-17T02:55:01.219Z,17.43
2023-10-17T02:58:04.494Z,15.30
2023-10-17T03:01:07.523Z,16.00
2023-10-17T03:04:14.521Z,13.80
2023-10-17T03:07:18.749Z,13.20
2023-10-17T03:10:42.733Z,14.57
2023-10-17T03:13:46.589Z,20.98
2023-10-17T03:16:56.304Z,12.43
2023-10-17T03:19:59.389Z,13.52
2023-10-17T03:23:04.650Z,18.67
2023-10-17T03:26:07.937Z,15.77
2023-10-17T03:29:21.384Z,13.75
2023-10-17T03:32:24.659Z,14.57
2023-10-17T03:35:30.215Z,12.77
2023-10-17T03:38:35.189Z,14.43
2023-10-17T03:41:38.517Z,12.70
2023-10-17T03:44:41.489Z,13.13
2023-10-17T03:47:54.976Z,12.48
2023-10-17T03:51:09.796Z,14.38
2023-10-17T03:54:19.184Z,17.17
2023-10-17T03:57:27.123Z,12.93
2023-10-17T04:00:36.133Z,16.33
2023-10-17T04:03:39.373Z,17.42
2023-10-17T04:06:43.887Z,21.45
2023-10-17T04:10:16.330Z,17.43
2023-10-17T04:13:35.747Z,19.23
2023-10-17T04:16:40.652Z,15.48
2023-10-17T04:19:43.831Z,19.05
2023-10-17T04:22:46.942Z,18.40
2023-10-17T04:25:56.369Z,18.03
2023-10-17T04:29:12.163Z,18.43
2023-10-17T04:32:15.135Z,20.70
2023-10-17T04:35:21.599Z,16.90
2023-10-17T04:38:36.735Z,30.55
2023-10-17T04:41:54.968Z,25.37
2023-10-17T04:45:07.003Z,17.13
2023-10-17T04:48:13.851Z,17.27
2023-10-17T04:51:19.971Z,15.00
2023-10-17T04:54:29.228Z,18.35
2023-10-17T04:57:50.891Z,18.57
2023-10-17T05:01:13.089Z,21.07
2023-10-17T05:04:34.650Z,22.73
2023-10-17T05:07:37.760Z,21.48
2023-10-17T05:10:46.525Z,19.48
2023-10-17T05:14:08.463Z,21.43
2023-10-17T05:17:30.401Z,26.80
2023-10-17T05:20:52.531Z,31.80
2023-10-17T05:24:14.240Z,33.22
2023-10-17T05:27:35.969Z,22.63
2023-10-17T05:30:57.833Z,13.90
2023-10-17T05:34:19.526Z,19.33
2023-10-17T05:37:41.134Z,42.08
2023-10-17T05:41:02.960Z,52.00
2023-10-17T05:44:25.048Z,70.30
2023-10-17T05:47:46.896Z,78.97
2023-10-17T05:51:08.810Z,60.43
2023-10-17T05:54:59.808Z,22.02
2023-10-17T05:58:12.100Z,13.13
2023-10-17T06:01:33.971Z,13.80
2023-10-17T06:04:55.827Z,13.10
2023-10-17T06:08:17.343Z,12.20
2023-10-17T06:11:38.922Z,9.55
2023-10-17T06:15:00.546Z,10.13
2023-10-17T06:18:09.080Z,10.52
2023-10-17T06:21:19.883Z,9.07
2023-10-17T06:24:41.799Z,11.00
2023-10-17T06:28:04.772Z,9.88
2023-10-17T06:31:32.212Z,10.75
2023-10-17T06:34:35.523Z,8.85
2023-10-17T06:37:41.453Z,10.10
2023-10-17T06:40:47.955Z,7.60
2023-10-17T06:43:55.846Z,7.93
2023-10-17T06:47:08.855Z,6.82
2023-10-17T06:50:15.217Z,8.85
2023-10-17T06:53:28.734Z,8.10
2023-10-17T06:56:33.396Z,9.43
2023-10-17T06:59:36.672Z,7.22
2023-10-17T07:02:49.548Z,10.45
2023-10-17T07:05:55.950Z,9.80
2023-10-17T07:08:59.004Z,8.23
2023-10-17T07:12:04.461Z,7.57
2023-10-17T07:15:14.530Z,8.27
2023-10-17T07:18:36.054Z,7.25
2023-10-17T07:21:58.147Z,5.90
2023-10-17T07:25:03.366Z,12.50
2023-10-17T07:28:07.683Z,8.20
2023-10-17T07:31:14.175Z,6.80
2023-10-17T07:34:17.186Z,8.13
2023-10-17T07:37:23.001Z,11.95
2023-10-17T07:40:34.292Z,11.47
2023-10-17T07:43:37.326Z,7.73
2023-10-17T07:46:40.354Z,5.65
2023-10-17T07:49:43.416Z,7.57
2023-10-17T07:52:51.657Z,8.30
2023-10-17T07:56:05.221Z,6.37
2023-10-17T07:59:10.047Z,6.73
2023-10-17T08:02:20.754Z,7.10
2023-10-17T08:05:24.754Z,7.03
2023-10-17T08:08:34.703Z,23.15
2023-10-17T08:11:38.299Z,8.10
2023-10-17T08:14:46.418Z,6.67
2023-10-17T08:17:50.864Z,7.10
2023-10-17T08:20:59.795Z,8.05
2023-10-17T08:24:03.374Z,6.53
2023-10-17T08:27:24.946Z,7.23
2023-10-17T08:33:45.445Z,7.95
2023-10-17T08:36:48.767Z,7.18
2023-10-17T08:39:51.957Z,8.55
2023-10-17T08:42:57.639Z,11.57
2023-10-17T08:46:00.703Z,8.30
2023-10-17T08:49:05.789Z,6.75
2023-10-17T08:52:18.917Z,6.50
2023-10-17T08:55:25.357Z,6.78
2023-10-17T08:58:34.336Z,6.50
2023-10-17T09:01:38.595Z,8.83
2023-10-17T09:04:44.729Z,12.32
2023-10-17T09:07:48.841Z,8.10
2023-10-17T09:10:52.825Z,7.97
2023-10-17T09:14:14.454Z,6.03
2023-10-17T09:17:19.090Z,7.47
2023-10-17T09:20:35.610Z,5.35
2023-10-17T09:23:39.989Z,6.15
2023-10-17T09:26:47.645Z,7.47
2023-10-17T09:29:57.265Z,7.03
2023-10-17T09:33:00.692Z,9.30
2023-10-17T09:36:06.227Z,6.93
2023-10-17T09:39:28.252Z,6.88
2023-10-17T09:42:45.978Z,7.78
2023-10-17T09:45:49.996Z,7.13
2023-10-17T09:48:54.888Z,7.30
2023-10-17T09:51:58.318Z,5.97
2023-10-17T09:55:05.538Z,8.77
2023-10-17T09:58:10.154Z,7.00
2023-10-17T10:01:22.019Z,6.17
2023-10-17T10:04:27.798Z,6.43
2023-10-17T10:07:33.298Z,7.00
2023-10-17T10:10:53.089Z,8.13
2023-10-17T10:14:09.788Z,12.70
2023-10-17T10:17:15.892Z,7.40
2023-10-17T10:20:19.761Z,8.63
2023-10-17T10:23:47.871Z,7.07
2023-10-17T10:27:10.924Z,10.93
2023-10-17T10:30:34.114Z,6.35
2023-10-17T10:33:43.351Z,9.50
2023-10-17T10:36:46.618Z,7.87
2023-10-17T10:40:24.151Z,7.28
2023-10-17T10:43:27.398Z,16.48
2023-10-17T10:46:31.769Z,9.15
2023-10-17T10:49:35.267Z,8.60
2023-10-17T10:52:38.251Z,7.70
2023-10-17T10:55:41.285Z,6.95
2023-10-17T10:58:45.401Z,7.88
2023-10-17T11:01:51.365Z,9.48
2023-10-17T11:04:57.888Z,7.50
2023-10-17T11:08:05.310Z,7.63
2023-10-17T11:11:10.955Z,9.00
2023-10-17T11:14:20.052Z,6.53
2023-10-17T11:17:27.954Z,8.38
2023-10-17T11:20:31.137Z,6.30
2023-10-17T11:23:34.873Z,7.80
2023-10-17T11:26:40.985Z,8.77
2023-10-17T11:29:44.184Z,6.60
2023-10-17T11:32:47.817Z,7.97
2023-10-17T11:35:52.324Z,11.20
2023-10-17T11:38:59.295Z,7.13
2023-10-17T11:42:02.299Z,9.20
2023-10-17T11:45:34.257Z,8.90
2023-10-17T11:48:41.426Z,27.00
2023-10-17T11:51:44.495Z,52.27
2023-10-17T11:55:14.824Z,38.77
2023-10-17T11:58:26.827Z,50.55
2023-10-17T12:01:30.634Z,79.85
2023-10-17T12:04:35.491Z,59.55
2023-10-17T12:07:43.966Z,109.13
2023-10-17T12:10:47.075Z,154.20
2023-10-17T12:13:50.101Z,29.15
2023-10-17T12:16:59.865Z,13.30
2023-10-17T12:20:10.775Z,23.48
2023-10-17T12:23:17.107Z,23.60
2023-10-17T12:26:28.042Z,31.37
2023-10-17T12:29:31.300Z,10.80
2023-10-17T12:32:34.878Z,13.60
2023-10-17T12:35:38.477Z,6.80
2023-10-17T12:38:41.573Z,6.77
2023-10-17T12:41:47.828Z,7.10
2023-10-17T12:44:50.820Z,8.73
2023-10-17T12:47:55.826Z,7.85
2023-10-17T12:50:59.109Z,6.32
2023-10-17T12:54:02.166Z,6.50
2023-10-17T12:57:08.179Z,7.13
2023-10-17T13:00:12.681Z,5.60
2023-10-17T13:03:16.364Z,6.85
2023-10-17T13:06:19.496Z,7.85
2023-10-17T13:09:24.137Z,7.67
2023-10-17T13:12:27.711Z,7.30
2023-10-17T13:15:32.131Z,6.57
2023-10-17T13:18:42.001Z,7.15
2023-10-17T13:21:46.733Z,9.18
2023-10-17T13:24:51.676Z,11.47
2023-10-17T13:27:54.772Z,7.40
2023-10-17T13:30:59.844Z,9.98
2023-10-17T13:34:03.153Z,7.03
2023-10-17T13:37:06.422Z,5.57
2023-10-17T13:40:10.591Z,6.23
2023-10-17T13:43:14.682Z,8.80
2023-10-17T13:46:18.877Z,21.27
2023-10-17T13:49:23.011Z,20.35
2023-10-17T13:52:26.148Z,19.88
2023-10-17T13:55:29.218Z,9.23
2023-10-17T13:58:35.465Z,8.07
2023-10-17T14:01:48.027Z,13.70
2023-10-17T14:04:51.171Z,8.88
2023-10-17T14:07:57.149Z,8.90
2023-10-17T14:11:30.917Z,8.67
2023-10-17T14:14:33.931Z,10.03
2023-10-17T14:17:37.968Z,10.82
2023-10-17T14:21:02.180Z,12.52
2023-10-17T14:24:08.781Z,14.10
2023-10-17T14:27:13.518Z,9.77
2023-10-17T14:30:17.376Z,9.07
2023-10-17T14:33:20.575Z,8.75
2023-10-17T14:36:23.806Z,7.97
2023-10-17T14:39:30.591Z,9.02
2023-10-17T14:42:34.382Z,6.87
2023-10-17T14:45:41.863Z,12.13
2023-10-17T14:48:46.274Z,11.75
2023-10-17T14:51:49.739Z,16.27
2023-10-17T14:54:52.862Z,20.77
2023-10-17T14:57:56.726Z,14.53
2023-10-17T15:00:59.879Z,12.53
2023-10-17T15:04:03.986Z,12.75
2023-10-17T15:07:07.280Z,9.63
2023-10-17T15:10:13.821Z,12.85
2023-10-17T15:13:19.062Z,13.23
2023-10-17T15:16:22.223Z,12.97
2023-10-17T15:19:25.331Z,13.30
2023-10-17T15:22:29.006Z,17.08
2023-10-17T15:25:32.244Z,15.13
2023-10-17T15:28:35.596Z,15.97
2023-10-17T15:31:39.351Z,26.13
2023-10-17T15:34:42.409Z,18.42
2023-10-17T15:37:49.417Z,19.13
2023-10-17T15:40:52.975Z,19.05
2023-10-17T15:43:56.097Z,14.10
2023-10-17T15:46:59.071Z,14.50
2023-10-17T15:50:02.062Z,13.10
2023-10-17T15:53:05.503Z,20.20
2023-10-17T15:56:08.582Z,21.83
2023-10-17T15:59:12.083Z,24.77
2023-10-17T16:02:15.161Z,15.90
2023-10-17T16:05:20.963Z,22.15
2023-10-17T16:08:24.885Z,22.13
2023-10-17T16:11:28.577Z,30.02
2023-10-17T16:14:31.905Z,28.50
2023-10-17T16:17:35.624Z,32.97
2023-10-17T16:20:40.319Z,50.03
2023-10-17T16:23:43.419Z,46.78
2023-10-17T16:26:46.657Z,49.60
2023-10-17T16:29:49.786Z,49.20
2023-10-17T16:32:52.829Z,39.97
2023-10-17T16:36:02.596Z,39.30
2023-10-17T16:39:05.623Z,134.95
2023-10-17T16:42:08.611Z,185.15
2023-10-17T16:45:12.607Z,139.17
2023-10-17T16:48:15.624Z,101.77
2023-10-17T16:51:19.372Z,56.67
2023-10-17T16:54:24.096Z,69.25
2023-10-17T16:57:27.254Z,43.08
2023-10-17T17:00:31.906Z,39.47
2023-10-17T17:03:35.234Z,63.43
2023-10-17T17:06:38.402Z,39.33
2023-10-17T17:09:41.499Z,41.97
2023-10-17T17:12:46.590Z,45.65
2023-10-17T17:15:50.040Z,43.73
2023-10-17T17:18:53.256Z,37.57
2023-10-17T17:21:57.593Z,41.28
2023-10-17T17:25:02.991Z,41.22
2023-10-17T17:28:06.308Z,48.58
2023-10-17T17:31:09.498Z,40.17
2023-10-17T17:34:12.632Z,43.73
2023-10-17T17:37:15.772Z,46.42
2023-10-17T17:40:18.889Z,57.53
2023-10-17T17:43:23.755Z,57.03
2023-10-17T17:46:27.769Z,73.57
2023-10-17T17:49:30.943Z,81.90
2023-10-17T17:52:33.979Z,74.00
2023-10-17T17:55:40.656Z,64.00
2023-10-17T17:58:45.808Z,61.83
2023-10-17T18:01:48.959Z,74.77
2023-10-17T18:04:52.157Z,67.60
2023-10-17T18:07:55.281Z,61.72
2023-10-17T18:11:00.944Z,45.72
2023-10-17T18:14:04.139Z,45.15
2023-10-17T18:17:07.215Z,34.50
2023-10-17T18:20:13.653Z,38.53
2023-10-17T18:23:19.067Z,39.58
2023-10-17T18:26:22.366Z,37.75
2023-10-17T18:29:25.684Z,47.78
2023-10-17T18:32:28.776Z,58.53
2023-10-17T18:35:31.941Z,60.60
2023-10-17T18:38:34.994Z,52.88
2023-10-17T18:41:41.846Z,37.22
2023-10-17T18:44:44.977Z,36.97
2023-10-17T18:47:48.532Z,33.87
2023-10-17T18:51:04.895Z,28.83
2023-10-17T18:54:08.834Z,27.63
2023-10-17T18:57:11.913Z,25.20
2023-10-17T19:00:20.991Z,23.05
2023-10-17T19:03:24.017Z,20.90
2023-10-17T19:06:27.880Z,19.80
2023-10-17T19:09:31.226Z,21.35
2023-10-17T19:12:41.751Z,17.63
2023-10-17T19:15:56.031Z,22.90
2023-10-17T19:18:59.182Z,21.90
2023-10-17T19:22:07.534Z,24.40
2023-10-17T19:25:13.774Z,20.33
2023-10-17T19:28:17.757Z,30.10
2023-10-17T19:31:21.543Z,21.90
2023-10-17T19:34:24.849Z,19.50
2023-10-17T19:37:28.026Z,18.93
2023-10-17T19:40:31.872Z,19.05
2023-10-17T19:43:34.978Z,18.98
2023-10-17T19:46:39.760Z,25.30
2023-10-17T19:49:42.884Z,44.10
2023-10-17T19:52:49.126Z,46.13
2023-10-17T19:55:52.427Z,33.97
2023-10-17T19:58:55.414Z,24.17
2023-10-17T20:01:58.598Z,29.17
2023-10-17T20:05:01.681Z,26.80
2023-10-17T20:08:04.812Z,24.27
2023-10-17T20:11:07.992Z,19.80
2023-10-17T20:14:11.050Z,27.08
2023-10-17T20:17:14.558Z,33.25
2023-10-17T20:20:20.710Z,29.90
2023-10-17T20:23:23.792Z,32.87
2023-10-17T20:26:26.824Z,31.83
2023-10-17T20:29:30.853Z,27.95
2023-10-17T20:32:37.901Z,26.23
2023-10-17T20:35:41.049Z,31.97
2023-10-17T20:38:44.687Z,31.43
2023-10-17T20:41:49.040Z,36.83
2023-10-17T20:44:52.422Z,30.30
2023-10-17T20:47:55.484Z,32.65
2023-10-17T20:51:04.998Z,33.27
2023-10-17T20:54:08.082Z,28.07
2023-10-17T20:57:12.816Z,28.05
2023-10-17T21:00:18.829Z,32.28
2023-10-17T21:03:22.040Z,28.63
2023-10-17T21:06:25.199Z,25.10
2023-10-17T21:09:28.549Z,27.63
2023-10-17T21:12:34.874Z,27.33
2023-10-17T21:15:38.009Z,25.20
2023-10-17T21:18:41.058Z,23.90
2023-10-17T21:21:47.211Z,23.90
2023-10-17T21:24:50.287Z,25.63
2023-10-17T21:27:53.357Z,26.55
2023-10-17T21:30:56.549Z,22.25
2023-10-17T21:33:59.632Z,23.13
2023-10-17T21:37:02.697Z,27.13
2023-10-17T21:40:09.082Z,29.77
2023-10-17T21:43:12.166Z,34.95
2023-10-17T21:46:15.308Z,29.80
2023-10-17T21:49:19.197Z,34.33
2023-10-17T21:52:22.808Z,28.33
2023-10-17T21:55:25.824Z,20.67
2023-10-17T21:58:28.769Z,18.38
2023-10-17T22:01:33.441Z,20.15
2023-10-17T22:04:40.416Z,20.27
2023-10-17T22:07:44.529Z,22.90
2023-10-17T22:10:47.822Z,23.17
2023-10-17T22:13:51.368Z,21.42
2023-10-17T22:16:54.537Z,19.45
2023-10-17T22:19:58.534Z,21.77
2023-10-17T22:23:01.662Z,17.07
2023-10-17T22:26:11.077Z,17.43
2023-10-17T22:29:14.181Z,19.05
2023-10-17T22:32:17.134Z,19.15
2023-10-17T22:35:20.096Z,19.05
2023-10-17T22:38:23.096Z,23.13
2023-10-17T22:41:26.500Z,22.13
2023-10-17T22:44:29.466Z,21.38
2023-10-17T22:47:32.474Z,21.92
2023-10-17T22:50:35.509Z,17.30
2023-10-17T22:53:39.418Z,17.60
2023-10-17T22:56:42.490Z,23.57
2023-10-17T22:59:45.981Z,24.40
2023-10-17T23:02:49.158Z,20.15
2023-10-17T23:05:52.180Z,21.77
2023-10-17T23:08:55.195Z,18.03
2023-10-17T23:11:58.376Z,21.43
2023-10-17T23:15:01.527Z,17.42
2023-10-17T23:18:04.951Z,22.58
2023-10-17T23:21:08.126Z,18.25
2023-10-17T23:24:11.177Z,19.13
2023-10-17T23:27:14.532Z,17.50
2023-10-17T23:30:19.055Z,20.52
2023-10-17T23:33:22.162Z,23.08
2023-10-17T23:36:25.190Z,22.85
2023-10-17T23:39:28.391Z,19.23
2023-10-17T23:42:32.532Z,22.00
2023-10-17T23:45:35.513Z,18.48
2023-10-17T23:48:39.346Z,20.15
2023-10-17T23:51:43.025Z,22.05
2023-10-17T23:54:46.830Z,21.53
2023-10-17T23:57:51.266Z,19.77
